Time;durP1;ratioP1;P1;durP2;ratioP2;P2;SDS_P1;SDS_P2;PMS_P1;PMS_P2;Temp;Humidity;BMP_temperature;BMP_pressure;BME280_temperature;BME280_humidity;BME280_pressure;Samples;Min_cycle;Max_cycle;Signal;HPM_P1;HPM_P2
2023/10/01 00:04:50;;;;;;;26.43;9.90;;;13.50;95.00;;;;;;20832366;28;20269;-62
2023/10/01 00:14:52;;;;;;;15.30;7.33;;;13.40;95.20;;;;;;20832355;28;20583;-64
2023/10/01 00:24:54;;;;;;;24.07;9.80;;;13.30;95.30;;;;;;20813629;28;20240;-63
2023/10/01 00:34:57;;;;;;;23.87;10.07;;;13.40;95.20;;;;;;20830486;28;20293;-63
2023/10/01 00:44:59;;;;;;;39.23;16.30;;;13.20;95.40;;;;;;20829586;28;20244;-63
2023/10/01 00:55:01;;;;;;;18.00;9.07;;;13.20;95.40;;;;;;20829589;28;20656;-63
2023/10/01 01:05:19;;;;;;;30.80;12.63;;;13.10;95.40;;;;;;20829110;28;20235;-63
2023/10/01 01:15:21;;;;;;;13.60;7.20;;;13.00;95.50;;;;;;20829052;28;20202;-63
2023/10/01 01:25:26;;;;;;;25.83;11.67;;;12.80;95.60;;;;;;20839044;28;20240;-62
2023/10/01 01:35:28;;;;;;;23.63;10.43;;;12.70;95.80;;;;;;20910113;28;20239;-63
2023/10/01 01:45:33;;;;;;;16.20;8.77;;;12.60;96.00;;;;;;20910321;28;20663;-63
2023/10/01 01:55:34;;;;;;;16.07;7.23;;;12.60;95.90;;;;;;20920316;28;20686;-62
2023/10/01 02:05:41;;;;;;;9.83;5.80;;;12.70;96.00;;;;;;20924522;28;20259;-62
2023/10/01 02:15:46;;;;;;;11.30;5.73;;;12.60;96.00;;;;;;20924056;28;20643;-63
2023/10/01 02:25:49;;;;;;;10.13;6.03;;;12.60;96.10;;;;;;20923274;28;20331;-65
2023/10/01 02:35:56;;;;;;;28.97;12.67;;;12.60;96.30;;;;;;20922305;28;20232;-68
2023/10/01 02:45:58;;;;;;;20.67;9.70;;;12.60;96.40;;;;;;20922197;28;20599;-63
2023/10/01 02:56:02;;;;;;;11.07;6.10;;;12.50;96.50;;;;;;20920603;28;20308;-64
2023/10/01 03:06:09;;;;;;;11.83;7.10;;;12.40;96.70;;;;;;20918807;28;20326;-63
2023/10/01 03:26:33;;;;;;;10.53;5.97;;;12.20;96.70;;;;;;20918204;28;20273;-64
2023/10/01 03:36:42;;;;;;;8.40;5.60;;;12.10;96.90;;;;;;20917252;28;20246;-62
2023/10/01 03:46:46;;;;;;;10.17;5.03;;;11.90;97.00;;;;;;20916914;28;20235;-62
2023/10/01 03:56:58;;;;;;;10.20;5.70;;;11.90;97.20;;;;;;20915645;28;20236;-63
2023/10/01 04:07:10;;;;;;;15.50;5.37;;;12.10;97.20;;;;;;20915155;28;20774;-62
2023/10/01 04:17:13;;;;;;;12.03;4.77;;;12.00;97.10;;;;;;20914115;28;20202;-63
2023/10/01 04:27:23;;;;;;;10.43;5.27;;;11.90;96.90;;;;;;20913719;28;20235;-63
2023/10/01 04:37:40;;;;;;;9.17;5.07;;;11.90;97.20;;;;;;20912939;28;20664;-64
2023/10/01 04:47:42;;;;;;;9.17;4.80;;;11.80;97.00;;;;;;20912371;28;20338;-63
2023/10/01 04:57:45;;;;;;;7.77;4.80;;;11.70;97.00;;;;;;20912219;28;20207;-63
2023/10/01 05:07:47;;;;;;;10.47;5.27;;;11.60;96.90;;;;;;20912198;28;20250;-63
2023/10/01 05:17:55;;;;;;;10.10;5.77;;;11.40;96.90;;;;;;20911184;28;20203;-65
2023/10/01 05:27:59;;;;;;;11.33;5.27;;;11.50;97.20;;;;;;20918380;28;20658;-63
2023/10/01 05:38:07;;;;;;;11.27;4.80;;;11.50;97.20;;;;;;20926659;28;20595;-63
2023/10/01 05:48:10;;;;;;;10.10;4.80;;;11.40;97.10;;;;;;20926025;28;20249;-64
2023/10/01 05:58:16;;;;;;;9.07;4.80;;;11.50;97.20;;;;;;20925604;28;20214;-63
2023/10/01 06:08:24;;;;;;;7.87;5.00;;;11.50;97.00;;;;;;20924347;28;20325;-68
2023/10/01 06:18:26;;;;;;;10.17;5.90;;;11.60;97.00;;;;;;20924932;28;20209;-63
2023/10/01 06:28:28;;;;;;;8.97;6.07;;;11.80;97.50;;;;;;20923539;28;20242;-65
2023/10/01 06:38:30;;;;;;;11.33;6.73;;;12.10;97.50;;;;;;20920897;28;20252;-64
2023/10/01 06:48:34;;;;;;;9.97;6.20;;;12.20;97.60;;;;;;20921045;28;20331;-64
2023/10/01 06:58:35;;;;;;;15.63;6.90;;;12.20;97.80;;;;;;20920750;28;20247;-64
2023/10/01 07:08:37;;;;;;;12.23;7.30;;;12.30;98.00;;;;;;20919629;28;20237;-63
2023/10/01 07:18:42;;;;;;;10.33;6.33;;;12.30;98.30;;;;;;20919041;28;20212;-64
2023/10/01 07:28:52;;;;;;;10.00;6.67;;;12.70;98.40;;;;;;20918397;28;20324;-63
2023/10/01 07:38:56;;;;;;;10.73;7.27;;;13.10;98.40;;;;;;20900602;28;20223;-63
2023/10/01 07:49:00;;;;;;;10.50;6.73;;;13.50;97.80;;;;;;20916329;28;20241;-63
2023/10/01 07:59:28;;;;;;;12.30;6.87;;;13.60;98.20;;;;;;20916286;28;20212;-64
2023/10/01 08:09:31;;;;;;;14.10;6.97;;;14.00;97.90;;;;;;20914995;28;20752;-64
2023/10/01 08:19:43;;;;;;;12.47;6.93;;;14.30;97.50;;;;;;20914024;28;20247;-64
2023/10/01 08:40:27;;;;;;;11.93;6.90;;;14.80;96.70;;;;;;20838381;28;20626;-65
2023/10/01 08:50:36;;;;;;;14.00;7.07;;;;;;;;;;20912285;28;20695;-64
2023/10/01 09:00:48;;;;;;;10.90;6.43;;;15.20;96.60;;;;;;20911315;28;20237;-64
2023/10/01 09:10:52;;;;;;;12.87;6.30;;;15.90;95.30;;;;;;20911425;28;20231;-64
2023/10/01 09:21:06;;;;;;;14.17;6.43;;;16.20;94.90;;;;;;20910741;28;20246;-63
2023/10/01 09:31:26;;;;;;;12.03;6.10;;;16.60;94.60;;;;;;20910272;28;20244;-64
2023/10/01 09:41:31;;;;;;;11.33;7.30;;;16.90;94.20;;;;;;20910716;28;20246;-64
2023/10/01 09:51:41;;;;;;;9.20;5.30;;;17.20;93.70;;;;;;20909606;28;20239;-64
2023/10/01 10:01:45;;;;;;;12.70;5.70;;;17.60;93.40;;;;;;20909671;28;20625;-64
2023/10/01 10:11:47;;;;;;;9.80;5.40;;;17.90;93.10;;;;;;20912782;28;20749;-64
2023/10/01 10:32:09;;;;;;;10.90;5.80;;;18.60;92.60;;;;;;20922402;28;20244;-66
2023/10/01 10:42:33;;;;;;;9.43;5.87;;;18.90;92.30;;;;;;20922547;28;20200;-65
2023/10/01 10:52:36;;;;;;;9.40;5.27;;;19.20;91.70;;;;;;20920924;28;20286;-66
2023/10/01 11:02:42;;;;;;;11.20;5.40;;;19.50;91.20;;;;;;20920180;28;20200;-64
2023/10/01 11:12:54;;;;;;;9.83;5.33;;;19.70;90.30;;;;;;20919722;28;20243;-63
2023/10/01 11:22:56;;;;;;;9.83;5.30;;;20.00;88.50;;;;;;20918211;28;20215;-68
2023/10/01 11:43:23;;;;;;;11.37;5.50;;;20.60;84.40;;;;;;20917511;28;20648;-66
2023/10/01 11:53:34;;;;;;;10.57;5.63;;;20.90;82.10;;;;;;20916207;28;20228;-64
2023/10/01 12:03:36;;;;;;;17.50;5.83;;;21.20;80.10;;;;;;20915213;28;20571;-64
2023/10/01 12:13:38;;;;;;;11.77;5.70;;;21.50;78.40;;;;;;20914795;28;20231;-64
2023/10/01 12:23:49;;;;;;;11.83;5.90;;;21.80;75.60;;;;;;20914098;28;20659;-64
2023/10/01 12:33:58;;;;;;;11.17;6.07;;;22.00;75.10;;;;;;20912107;28;20248;-64
2023/10/01 12:44:14;;;;;;;11.53;6.20;;;22.20;73.00;;;;;;20913425;28;20208;-65
2023/10/01 12:54:27;;;;;;;10.50;5.70;;;22.30;71.40;;;;;;20912368;28;20231;-68
2023/10/01 13:04:32;;;;;;;11.87;5.47;;;22.40;70.60;;;;;;20911871;28;20686;-66
2023/10/01 13:14:33;;;;;;;8.87;6.03;;;22.50;69.60;;;;;;20911839;28;20250;-64
2023/10/01 13:24:55;;;;;;;9.40;6.27;;;22.60;68.30;;;;;;20911095;28;20793;-68
2023/10/01 13:35:30;;;;;;;11.40;6.10;;;22.80;67.20;;;;;;20910551;28;20243;-67
2023/10/01 14:16:28;;;;;;;12.50;6.97;;;;;;;;;;20924437;28;20707;-65
2023/10/01 14:26:33;;;;;;;10.85;6.28;;;;;;;;;;20923756;28;20596;-65
2023/10/01 14:36:39;;;;;;;9.85;6.30;;;24.30;59.70;;;;;;20904789;28;20766;-65
2023/10/01 14:46:47;;;;;;;11.02;6.65;;;;;;;;;;20921897;28;20232;-65
2023/10/01 14:56:55;;;;;;;13.45;6.65;;;29.70;49.20;;;;;;20902765;28;20238;-65
2023/10/01 15:06:58;;;;;;;11.50;6.03;;;25.90;50.50;;;;;;20920144;28;20275;-68
2023/10/01 15:17:03;;;;;;;9.37;5.27;;;25.70;50.60;;;;;;20918847;28;20294;-68
2023/10/01 15:27:12;;;;;;;15.67;6.37;;;25.50;51.70;;;;;;20918153;28;20239;-71
2023/10/01 15:37:15;;;;;;;10.97;5.93;;;24.80;53.10;;;;;;20917673;28;20244;-71
2023/10/01 15:47:36;;;;;;;13.63;6.07;;;24.20;54.00;;;;;;20916129;28;20235;-70
2023/10/01 15:57:39;;;;;;;10.83;5.40;;;23.80;54.70;;;;;;20916486;28;20219;-67
2023/10/01 16:07:44;;;;;;;10.90;6.23;;;23.50;55.00;;;;;;20912527;28;20267;-67
2023/10/01 16:17:50;;;;;;;11.83;5.77;;;23.20;55.30;;;;;;20914386;28;20286;-67
2023/10/01 16:27:52;;;;;;;15.10;6.70;;;22.90;56.00;;;;;;20914497;28;20294;-68
2023/10/01 16:37:56;;;;;;;11.50;5.67;;;22.70;57.40;;;;;;20900086;28;20711;-67
2023/10/01 16:48:07;;;;;;;10.13;5.80;;;22.40;58.30;;;;;;20859302;28;20255;-70
2023/10/01 16:58:11;;;;;;;10.03;5.43;;;22.10;58.80;;;;;;20868266;28;20204;-72
2023/10/01 17:08:14;;;;;;;10.50;5.77;;;21.70;59.40;;;;;;20810356;28;20236;-65
2023/10/01 17:18:19;;;;;;;12.20;5.90;;;21.50;60.50;;;;;;20828310;28;20576;-69
2023/10/01 17:28:46;;;;;;;11.33;6.37;;;21.10;61.20;;;;;;20842827;28;20322;-68
2023/10/01 17:38:50;;;;;;;11.03;6.17;;;20.80;62.30;;;;;;20878766;28;20204;-70
2023/10/01 17:48:55;;;;;;;14.70;6.40;;;20.60;63.90;;;;;;20900434;28;20237;-63
2023/10/01 17:58:59;;;;;;;14.13;6.60;;;20.40;65.00;;;;;;20841150;28;20216;-74
2023/10/01 18:09:13;;;;;;;13.20;6.33;;;20.20;66.90;;;;;;20891829;28;20235;-73
2023/10/01 18:19:17;;;;;;;12.77;6.43;;;19.90;68.40;;;;;;20923147;28;20213;-72
2023/10/01 18:29:21;;;;;;;13.53;6.30;;;19.60;69.50;;;;;;20922749;28;20314;-78
2023/10/01 18:39:32;;;;;;;12.70;6.60;;;19.40;70.50;;;;;;20902204;28;20204;-69
2023/10/01 18:49:34;;;;;;;10.93;6.73;;;19.20;71.40;;;;;;20902034;28;20697;-69
2023/10/01 18:59:36;;;;;;;14.27;7.13;;;19.00;72.20;;;;;;20919172;28;20204;-70
2023/10/01 19:09:37;;;;;;;13.20;6.73;;;18.80;72.80;;;;;;20918970;28;20266;-71
2023/10/01 19:19:39;;;;;;;17.37;7.70;;;18.70;73.90;;;;;;20865765;28;20575;-69
2023/10/01 19:29:41;;;;;;;13.03;7.97;;;18.50;75.10;;;;;;20833907;28;21278;-72
2023/10/01 19:39:43;;;;;;;13.37;7.60;;;18.40;75.90;;;;;;20855765;28;20714;-70
2023/10/01 19:49:48;;;;;;;14.73;8.47;;;18.30;76.40;;;;;;20914451;28;20691;-72
2023/10/01 19:59:52;;;;;;;12.40;7.27;;;18.10;77.20;;;;;;20896262;28;20203;-70
2023/10/01 20:09:55;;;;;;;13.77;6.67;;;18.00;78.40;;;;;;20913638;28;20239;-70
2023/10/01 20:19:58;;;;;;;12.13;6.80;;;17.70;80.30;;;;;;20912741;28;20250;-72
2023/10/01 20:30:00;;;;;;;9.97;6.60;;;17.60;80.80;;;;;;20911623;28;20274;-71
2023/10/01 20:40:09;;;;;;;15.03;6.87;;;17.40;81.40;;;;;;20886635;28;20201;-70
2023/10/01 20:50:38;;;;;;;12.90;7.00;;;17.40;82.90;;;;;;20828302;28;20722;-70
2023/10/01 21:00:50;;;;;;;12.33;6.87;;;17.20;83.90;;;;;;20826900;28;20704;-70
2023/10/01 21:10:52;;;;;;;11.87;6.50;;;;;;;;;;20828038;28;20659;-70
2023/10/01 21:20:58;;;;;;;13.43;6.73;;;17.10;85.30;;;;;;20827253;28;20237;-70
2023/10/01 21:31:00;;;;;;;12.37;6.80;;;16.70;87.50;;;;;;20826736;28;20242;-70
2023/10/01 21:41:11;;;;;;;12.03;6.80;;;16.60;88.50;;;;;;20859755;28;20716;-71
2023/10/01 21:51:13;;;;;;;13.48;7.32;;;16.60;89.60;;;;;;20900846;28;20452;-70
2023/10/01 22:11:41;;;;;;;11.97;6.20;;;16.20;91.30;;;;;;20917456;28;20321;-70
2023/10/01 22:21:49;;;;;;;13.40;6.33;;;16.10;91.80;;;;;;20904302;28;20283;-70
2023/10/01 22:31:54;;;;;;;14.97;6.77;;;15.90;92.10;;;;;;20920776;28;20291;-71
2023/10/01 22:41:58;;;;;;;13.03;6.07;;;15.80;92.50;;;;;;20880156;28;20258;-70
2023/10/01 22:52:00;;;;;;;15.70;6.77;;;15.70;92.80;;;;;;20837047;28;20240;-69
2023/10/01 23:02:05;;;;;;;12.87;6.30;;;15.60;93.10;;;;;;20836367;28;20300;-70
2023/10/01 23:12:07;;;;;;;9.73;6.23;;;15.50;93.50;;;;;;20835991;28;20232;-70
2023/10/01 23:22:17;;;;;;;10.23;5.63;;;15.50;93.80;;;;;;20834005;28;20204;-71
2023/10/01 23:32:24;;;;;;;12.33;6.40;;;15.30;94.30;;;;;;20833648;28;20294;-70
2023/10/01 23:42:28;;;;;;;10.13;6.47;;;15.20;94.20;;;;;;20878033;28;20211;-71
2023/10/01 23:52:32;;;;;;;9.83;6.03;;;15.10;94.60;;;;;;20914797;28;20718;-71
